Weather at Phnom Penh International Airport

Public forecast

Using degrees Celsius for public forecast. Weather courtesy of forecast.io.

Current aviation weather report (METAR) for Phnom Penh International Airport

Report is more than 6 hours old.

2022/11/14 15:30 (retrieved 2 years ago)

VDPP 141530Z VRB01KT 9000 SCT015 FEW017CB SCT040 27/25 Q1010 RMK CB

Closest aviation forecast (TAF) to Phnom Penh International Airport

Forecast is more than 12 hours old.

Closest forecast is Sihanoukville International Airport, 92.5 nm (171.3 km) SW.

2023/02/22 18:00 (retrieved 1 year ago)

TAF VDSV 221700Z 2218/2312 05007KT 9999 SCT017